Latest Weather Observations for Bathurst Airport

IDN60801

Issued at 1:03 am EST Sunday 20 August 2017 (issued every 30 minutes, with the page automatically refreshed every 10 minutes)

About weather observations | Map of weather stations | Latest weather observations for NSW | Other Formats
Station Details ID: 063291 Name: BATHURST AIRPORT AWS Lat: -33.41 Lon: 149.65 Height: 744.5 m
Data from the previous 72 hours. | See also: Recent months at Bathurst Airport
Date/Time
EST
Temp
°C
App
Temp
°C
Dew
Point
°C
Rel
Hum
%
Delta-T
°C
Wind Press
QNH
hPa
Press
MSL
hPa
Rain since
9am
mm
Dir  Spd
km/h
Gust
km/h
Spd
kts
Gust
kts
20/01:00am -1.6 -3.8 -1.7 99 0.0 CALM 0 6 0 3 1022.5 1023.1 0.0
20/12:30am -2.6 -6.2 -3.7 92 0.3 SSW 6 11 3 6 1022.5 1023.1 0.0
20/12:00am -1.5 -5.9 -2.2 95 0.2 SSW 11 13 6 7 1022.5 1023.1 0.0
 
Date/Time
EST
Temp
°C
App
Temp
°C
Dew
Point
°C
Rel
Hum
%
Delta-T
°C
Wind Press
QNH
hPa
Press
MSL
hPa
Rain since
9am
mm
Dir  Spd
km/h
Gust
km/h
Spd
kts
Gust
kts
19/11:30pm 0.6 -2.9 -1.3 87 0.7 SSW 7 9 4 5 1022.7 1023.3 0.0
19/11:00pm 0.7 -3.9 -1.1 88 0.7 S 13 13 7 7 1022.5 1023.1 0.0
19/10:30pm 1.2 -2.6 -0.4 89 0.6 S 9 13 5 7 1022.6 1023.2 0.0
19/10:00pm 1.2 -3.0 -1.0 85 0.8 SSW 11 13 6 7 1022.6 1023.2 0.0
19/09:30pm 1.5 -1.8 -0.9 84 0.9 S 6 7 3 4 1022.8 1023.5 0.0
19/09:00pm 1.0 -3.3 -1.6 83 0.9 SW 11 13 6 7 1022.9 1023.6 0.0
19/08:30pm 1.8 -3.6 -1.3 80 1.2 SW 17 19 9 10 1022.7 1023.3 0.0
19/08:00pm 2.4 -2.6 -1.2 77 1.3 SSW 15 19 8 10 1022.5 1023.1 0.0
19/07:30pm 3.0 -2.0 -1.0 75 1.5 SSW 15 19 8 10 1022.1 1022.7 0.0
19/07:00pm 2.6 -1.4 -1.9 72 1.7 SSW 9 13 5 7 1021.6 1022.3 0.0
19/06:30pm 3.7 -1.7 -1.6 68 2.0 SW 17 20 9 11 1021.4 1022.0 0.0
19/06:00pm 3.7 -2.1 -1.6 68 2.0 SW 19 20 10 11 1021.0 1021.6 0.0
19/05:30pm 5.7 -0.2 -1.9 58 2.9 SW 19 24 10 13 1020.9 1021.5 0.0
19/05:00pm 7.1 1.1 -1.8 53 3.5 SSW 20 26 11 14 1020.5 1021.1 0.0
19/04:30pm 7.8 1.4 -1.7 51 3.8 SW 22 30 12 16 1020.1 1020.7 0.0
19/04:00pm 8.0 2.2 -0.2 56 3.4 SSW 20 26 11 14 1019.8 1020.4 0.0
19/03:30pm 7.3 1.0 -1.1 55 3.4 SW 22 28 12 15 1019.6 1020.2 0.0
19/03:00pm 7.8 1.5 -0.9 54 3.5 SW 22 30 12 16 1019.5 1020.1 0.0
19/02:30pm 7.3 0.4 -2.4 50 3.8 SSW 24 35 13 19 1019.3 1019.9 0.0
19/02:00pm 7.7 0.9 -2.0 50 3.8 SW 24 32 13 17 1019.3 1019.9 0.0
19/01:30pm 6.8 -0.1 -2.4 52 3.5 SW 24 35 13 19 1019.4 1020.0 0.0
19/01:00pm 6.5 0.4 -2.4 53 3.4 SSW 20 33 11 18 1019.4 1020.0 0.0
19/12:30pm 6.2 -1.0 -1.7 57 3.1 SW 26 35 14 19 1019.4 1020.0 0.0
19/12:00pm 7.0 -0.8 -0.7 58 3.1 SW 30 35 16 19 1019.5 1020.1 0.0
19/11:30am 6.3 -0.8 -1.3 58 3.0 SW 26 35 14 19 1019.5 1020.1 0.0
19/11:00am 6.1 -1.8 -1.3 59 2.9 SSW 30 35 16 19 1019.6 1020.2 0.0
19/10:30am 5.1 -2.0 -0.9 65 2.3 SW 26 32 14 17 1019.7 1020.3 0.0
19/10:00am 5.2 -1.3 0.4 71 1.9 SW 24 28 13 15 1019.7 1020.3 0.0
19/09:30am 4.8 -1.6 0.9 76 1.6 SW 24 30 13 16 1019.5 1020.1 0.0
19/09:00am 4.1 -1.6 -0.5 72 1.8 WSW 19 24 10 13 1019.5 1020.1 1.8
19/08:30am 3.1 -1.8 -0.4 78 1.4 SW 15 20 8 11 1019.3 1019.9 1.8
19/08:00am 2.7 -1.4 -0.4 80 1.2 SW 11 15 6 8 1019.1 1019.6 1.8
19/07:30am 2.0 -1.3 -0.1 86 0.8 SW 7 9 4 5 1018.4 1019.0 1.8
19/07:00am 1.2 -3.7 -0.6 88 0.7 WSW 15 19 8 10 1018.1 1018.6 1.8
19/06:30am 1.7 -4.0 -0.5 85 0.8 SW 19 28 10 15 1017.8 1018.3 1.8
19/06:00am 2.1 -3.5 0.2 87 0.7 SW 19 26 10 14 1017.6 1018.1 1.8
19/05:30am 2.5 -3.0 0.7 88 0.7 SW 19 24 10 13 1017.1 1017.7 1.8
19/05:28am 2.5 -3.1 0.9 89 0.6 SW 20 28 11 15 1017.1 1017.7 1.8
19/05:00am 2.5 -4.3 0.9 89 0.6 SW 26 33 14 18 1016.8 1017.3 1.8
19/04:30am 2.7 -2.4 0.9 88 0.7 SW 17 28 9 15 1016.8 1017.3 1.8
19/04:26am 2.7 -3.0 0.8 87 0.8 SW 20 30 11 16 1016.7 1017.2 1.8
19/04:00am 2.7 -3.3 0.8 87 0.8 SW 22 30 12 16 1016.3 1016.8 1.8
19/03:30am 2.6 -3.8 0.7 87 0.8 SW 24 35 13 19 1015.8 1016.4 1.8
19/03:00am 2.8 -5.2 0.7 86 0.8 WSW 32 43 17 23 1015.8 1016.4 1.8
19/02:36am 2.5 -3.6 0.6 87 0.8 WSW 22 30 12 16 1016.1 1016.6 1.8
19/02:30am 2.7 -3.0 0.8 87 0.8 WSW 20 30 11 16 1016.2 1016.7 1.8
19/02:00am 2.8 -2.2 1.2 89 0.6 SW 17 28 9 15 1016.5 1017.0 1.8
19/01:41am 2.9 -2.5 1.4 90 0.6 SW 19 28 10 15 1016.5 1017.0 1.8
19/01:30am 2.9 -3.0 1.4 90 0.6 SW 22 30 12 16 1016.5 1017.0 1.8
19/01:00am 3.1 -3.3 1.2 87 0.8 WSW 24 44 13 24 1016.4 1016.9 1.8
19/12:30am 3.5 -3.2 1.2 85 0.9 WSW 26 41 14 22 1016.4 1016.9 1.8
19/12:00am 3.8 -3.6 1.8 87 0.8 WSW 30 39 16 21 1016.4 1016.9 1.8
 
Date/Time
EST
Temp
°C
App
Temp
°C
Dew
Point
°C
Rel
Hum
%
Delta-T
°C
Wind Press
QNH
hPa
Press
MSL
hPa
Rain since
9am
mm
Dir  Spd
km/h
Gust
km/h
Spd
kts
Gust
kts
18/11:30pm 3.9 -4.1 1.4 84 1.0 WSW 33 46 18 25 1016.3 1016.8 1.8
18/11:00pm 3.9 -3.6 1.1 82 1.1 WSW 30 44 16 24 1016.4 1016.9 1.8
18/10:30pm 3.9 -4.2 1.1 82 1.1 WSW 33 44 18 24 1016.5 1017.0 1.8
18/10:00pm 3.8 -4.1 0.8 81 1.2 WSW 32 44 17 24 1016.5 1017.0 1.8
18/09:33pm 4.0 -4.0 1.9 86 0.9 WSW 33 52 18 28 1016.3 1016.8 1.8
18/09:30pm 4.0 -4.3 1.9 86 0.9 WSW 35 52 19 28 1016.3 1016.8 1.8
18/09:00pm 4.6 -4.6 1.3 79 1.4 WSW 39 48 21 26 1016.2 1016.7 1.8
18/08:30pm 4.8 -3.5 2.3 84 1.1 WSW 35 46 19 25 1016.1 1016.6 1.8
18/08:00pm 4.3 -1.7 3.1 92 0.5 WSW 24 32 13 17 1015.9 1016.5 1.8
18/07:30pm 3.8 -2.6 3.1 95 0.3 WSW 26 33 14 18 1015.7 1016.2 1.8
18/07:24pm 4.0 -3.1 3.3 95 0.3 WSW 30 41 16 22 1015.8 1016.4 1.8
18/07:10pm 4.5 -3.5 3.6 94 0.4 WSW 35 54 19 29 1015.5 1016.0 1.6
18/07:05pm 4.8 -2.0 3.3 90 0.6 WSW 28 54 15 29 1015.3 1015.8 1.6
18/07:00pm 4.7 -1.6 3.8 94 0.4 WSW 26 41 14 22 1015.3 1015.8 1.4
18/06:33pm 5.1 -3.9 2.3 82 1.2 W 39 63 21 34 1014.9 1015.4 1.2
18/06:30pm 5.1 -3.2 2.1 81 1.3 W 35 48 19 26 1014.7 1015.1 1.2
18/06:00pm 4.2 -1.5 2.9 91 0.6 W 22 33 12 18 1014.6 1015.0 1.2
18/05:39pm 4.8 -2.8 3.0 88 0.8 W 32 50 17 27 1014.4 1014.9 1.2
18/05:30pm 4.9 -1.1 3.1 88 0.8 W 24 35 13 19 1014.0 1014.5 1.0
18/05:00pm 3.7 -0.9 3.6 99 0.0 WSW 17 20 9 11 1014.2 1014.7 1.0
18/04:42pm 3.4 -1.8 3.3 99 0.0 W 20 28 11 15 1014.1 1014.6 1.0
18/04:30pm 3.2 -3.2 3.1 99 0.0 W 26 33 14 18 1013.8 1014.3 1.0
18/04:15pm 3.3 -6.1 2.4 94 0.4 WSW 41 59 22 32 1013.9 1014.4 0.8
18/04:10pm 4.1 -4.1 2.5 89 0.7 WSW 35 59 19 32 1013.9 1014.4 0.4
18/04:09pm 4.6 -3.5 3.1 90 0.6 WSW 35 57 19 31 1013.9 1014.4 0.4
18/04:00pm 5.5 -1.6 3.8 89 0.8 W 30 37 16 20 1013.6 1014.1 0.2
18/03:30pm 4.2 -3.9 3.0 92 0.5 W 35 50 19 27 1013.2 1013.6 0.2
18/03:09pm 5.0 -4.6 3.2 88 0.8 W 43 61 23 33 1012.9 1013.4 0.2
18/03:00pm 5.7 -4.3 1.1 72 1.9 W 43 61 23 33 1012.5 1013.0 0.2
18/02:53pm 7.6 0.2 1.7 66 2.5 W 30 54 16 29 1012.4 1012.9 0.2
18/02:30pm 6.1 -1.5 2.7 79 1.5 W 32 48 17 26 1012.5 1013.0 0.2
18/02:00pm 5.3 -4.0 2.8 84 1.1 WSW 41 50 22 27 1012.6 1013.1 0.2
18/01:30pm 7.2 -2.9 1.5 67 2.4 WSW 44 59 24 32 1012.3 1012.7 0.0
18/01:22pm 6.3 -3.2 2.0 74 1.8 WSW 41 59 22 32 1012.6 1013.1 0.0
18/01:00pm 7.3 -2.6 1.6 67 2.4 WSW 43 54 23 29 1012.3 1012.7 0.0
18/12:31pm 6.8 -1.5 2.1 72 2.0 WSW 35 54 19 29 1012.4 1012.9 0.0
18/12:30pm 6.5 -2.3 1.6 71 2.1 WSW 37 54 20 29 1012.4 1012.9 0.0
18/12:00pm 8.7 -0.2 3.1 68 2.5 W 39 57 21 31 1012.7 1013.2 0.0
18/11:58am 7.5 -1.7 1.1 64 2.7 W 39 57 21 31 1012.6 1013.1 0.0
18/11:30am 6.3 -2.8 2.0 74 1.8 W 39 50 21 27 1013.0 1013.5 0.0
18/11:07am 6.2 -2.7 2.8 79 1.5 W 39 57 21 31 1013.2 1013.6 0.0
18/11:00am 6.6 -2.7 3.0 78 1.6 W 41 52 22 28 1013.2 1013.6 0.0
18/10:30am 6.4 -3.3 3.0 79 1.5 W 43 61 23 33 1013.0 1013.5 0.0
18/10:25am 6.5 -2.7 3.5 81 1.3 W 41 61 22 33 1013.0 1013.5 0.0
18/10:00am 5.6 -3.8 2.4 80 1.4 W 41 54 22 29 1012.8 1013.3 0.0
18/09:30am 5.7 -2.3 3.7 87 0.9 W 35 54 19 29 1012.7 1013.2 0.0
18/09:00am 3.9 -4.7 2.7 92 0.5 W 37 52 20 28 1012.8 1013.3 1.4
18/08:43am 4.6 -3.8 3.6 93 0.4 W 37 50 20 27 1012.6 1013.1 1.4
18/08:30am 3.8 -4.0 2.8 93 0.4 W 33 46 18 25 1012.6 1013.1 1.4
18/08:28am 3.7 -4.1 2.8 94 0.4 W 33 44 18 24 1012.6 1013.1 1.4
18/08:00am 4.9 -3.0 2.1 82 1.2 W 33 56 18 30 1012.1 1012.5 1.0
18/07:59am 5.2 -2.7 2.0 80 1.3 W 33 56 18 30 1012.1 1012.5 1.0
18/07:30am 4.2 -2.3 2.4 88 0.8 W 26 35 14 19 1011.9 1012.3 1.0
18/07:00am 4.2 -3.5 3.3 94 0.4 W 33 43 18 23 1011.5 1012.0 1.0
18/06:30am 4.5 -1.8 3.8 95 0.3 W 26 35 14 19 1011.2 1011.6 0.8
18/06:00am 5.0 -2.6 3.0 87 0.9 W 32 39 17 21 1010.9 1011.3 0.8
18/05:30am 5.0 -1.0 3.2 88 0.8 W 24 39 13 21 1010.8 1011.2 0.8
18/05:00am 4.9 -1.5 3.4 90 0.7 W 26 35 14 19 1010.7 1011.1 0.8
18/04:30am 4.8 -1.5 3.9 94 0.4 W 26 37 14 20 1010.7 1011.1 0.8
18/04:21am 4.7 -0.3 4.6 99 0.0 W 20 28 11 15 1010.8 1011.2 0.8
18/04:00am 4.9 -2.1 4.3 96 0.3 WSW 30 39 16 21 1010.8 1011.2 0.8
18/03:35am 5.5 1.0 4.2 91 0.6 WSW 17 28 9 15 1010.4 1010.8 0.2
18/03:30am 5.4 0.9 4.2 92 0.5 W 17 24 9 13 1010.1 1010.6 0.2
18/03:00am 5.0 0.6 2.9 86 0.9 WNW 15 20 8 11 1010.1 1010.6 0.2
18/02:30am 5.7 1.0 3.0 83 1.2 WSW 17 22 9 12 1010.3 1010.7 0.0
18/02:00am 7.0 -1.4 1.7 69 2.3 W 35 54 19 29 1010.6 1011.0 0.0
18/01:57am 7.4 -0.7 1.3 65 2.6 WSW 33 54 18 29 1010.6 1011.0 0.0
18/01:30am 8.7 2.6 0.2 55 3.5 W 22 33 12 18 1009.8 1010.2 0.0
18/01:00am 9.2 1.8 -0.9 49 4.1 WNW 28 37 15 20 1010.0 1010.4 0.0
18/12:42am 9.5 2.0 -1.2 47 4.4 WNW 28 46 15 25 1010.0 1010.4 0.0
18/12:30am 9.1 1.5 -1.9 46 4.4 WNW 28 35 15 19 1010.1 1010.6 0.0
18/12:00am 9.0 1.8 -2.0 46 4.4 WNW 26 33 14 18 1010.3 1010.7 0.0
 
Date/Time
EST
Temp
°C
App
Temp
°C
Dew
Point
°C
Rel
Hum
%
Delta-T
°C
Wind Press
QNH
hPa
Press
MSL
hPa
Rain since
9am
mm
Dir  Spd
km/h
Gust
km/h
Spd
kts
Gust
kts
17/11:30pm 8.5 2.5 -1.6 49 4.0 NW 20 26 11 14 1010.5 1010.9 0.0
17/11:00pm 7.5 2.2 -0.9 55 3.4 NW 17 20 9 11 1010.7 1011.1 0.0
17/10:30pm 7.3 2.0 -0.4 58 3.1 WNW 17 20 9 11 1010.9 1011.3 0.0
17/10:00pm 7.4 2.2 -0.1 59 3.1 WNW 17 22 9 12 1010.9 1011.3 0.0
17/09:30pm 7.7 2.4 -0.3 57 3.3 NW 17 20 9 11 1011.1 1011.5 0.0
17/09:00pm 7.6 2.7 -0.4 57 3.3 NW 15 19 8 10 1011.0 1011.4 0.0
17/08:30pm 8.6 3.4 -0.2 54 3.6 NW 17 20 9 11 1011.0 1011.4 0.0
17/08:00pm 8.9 3.7 -0.1 53 3.7 WNW 17 22 9 12 1010.8 1011.2 0.0
17/07:30pm 9.7 4.2 0.3 52 4.0 NW 19 22 10 12 1010.6 1011.0 0.0
17/07:00pm 9.5 4.3 0.1 52 4.0 NW 17 20 9 11 1010.4 1010.8 0.0
17/06:30pm 10.8 5.2 0.2 48 4.5 NW 19 24 10 13 1010.3 1010.7 0.0
17/06:00pm 11.3 5.6 0.4 47 4.7 NW 20 32 11 17 1009.9 1010.3 0.0
17/05:30pm 11.4 4.5 -0.1 45 4.9 WNW 26 35 14 19 1009.5 1009.9 0.0
17/05:00pm 12.9 6.0 0.0 41 5.6 WNW 26 35 14 19 1009.3 1009.7 0.0
17/04:30pm 13.8 5.6 0.1 39 6.0 WNW 33 44 18 24 1009.3 1009.7 0.0
17/04:00pm 14.2 6.4 1.5 42 5.8 WNW 32 41 17 22 1009.1 1009.5 0.0
17/03:30pm 14.5 6.4 0.7 39 6.2 WNW 33 46 18 25 1009.1 1009.5 0.0
17/03:04pm 15.2 7.4 1.4 39 6.3 WNW 32 50 17 27 1009.3 1009.7 0.0
17/03:00pm 14.9 6.8 1.1 39 6.2 WNW 33 50 18 27 1009.3 1009.7 0.0
17/02:45pm 14.9 6.8 0.0 36 6.6 WNW 32 52 17 28 1009.3 1009.7 0.0
17/02:30pm 15.3 7.5 1.4 39 6.3 WNW 32 41 17 22 1009.4 1009.8 0.0
17/02:00pm 15.2 7.2 0.2 36 6.7 WNW 32 41 17 22 1009.5 1009.9 0.0
17/01:30pm 14.9 6.3 0.0 36 6.6 W 35 44 19 24 1009.6 1010.0 0.0
17/01:00pm 14.8 6.8 0.3 37 6.4 W 32 44 17 24 1009.8 1010.2 0.0
17/12:30pm 14.6 7.1 1.2 40 6.0 W 30 37 16 20 1009.9 1010.3 0.0
17/12:00pm 12.6 4.9 0.0 42 5.4 W 30 41 16 22 1010.7 1011.1 0.0
17/11:30am 12.8 6.9 1.8 47 4.9 W 22 37 12 20 1011.0 1011.4 0.0
17/11:00am 13.1 7.9 3.7 53 4.4 WNW 20 32 11 17 1011.5 1012.0 0.0
17/10:30am 12.5 7.4 4.2 57 3.9 NW 20 30 11 16 1012.0 1012.4 0.0
17/10:00am 10.9 7.0 5.2 68 2.7 N 15 19 8 10 1012.2 1012.6 0.0
17/09:30am 9.2 5.6 5.0 75 2.0 N 13 19 7 10 1012.3 1012.7 0.0
17/09:00am 6.3 3.6 5.7 96 0.3 N 9 11 5 6 1012.4 1012.9 2.0
17/08:30am 4.1 1.7 4.1 100 0.0 N 6 7 3 4 1012.4 1012.9 2.0
17/08:21am 3.4 1.6 3.4 100 0.0 N 2 7 1 4 1012.4 1012.9 2.0
17/08:00am 1.6 -0.5 1.6 100 0.0 NNW 2 9 1 5 1012.2 1012.6 2.0
17/07:40am -0.3 -3.5 -0.3 100 0.0 WNW 6 26 3 14 1012.2 1012.6 2.0
17/07:30am 0.3 -1.6 0.3 100 0.0 CALM 0 0 0 0 1012.1 1012.5 2.0
17/07:04am -0.4 -2.5 -0.5 99 0.0 CALM 0 0 0 0 1011.8 1012.2 2.0
17/07:00am -0.3 -2.3 -0.4 99 0.0 CALM 0 0 0 0 1011.8 1012.2 2.0
17/06:30am 0.2 -1.8 0.1 99 0.0 CALM 0 0 0 0 1011.6 1012.1 2.0
17/06:14am 0.6 -1.3 0.5 99 0.0 CALM 0 0 0 0 1011.4 1011.9 2.0
17/06:06am 0.6 -1.3 0.5 99 0.0 CALM 0 0 0 0 1011.4 1011.9 2.0
17/06:00am 0.5 -1.4 0.4 99 0.0 CALM 0 0 0 0 1011.4 1011.9 2.0
17/05:32am 0.4 -1.5 0.3 99 0.0 CALM 0 0 0 0 1011.2 1011.6 2.0
17/05:30am 0.7 -1.2 0.6 99 0.0 CALM 0 0 0 0 1011.2 1011.6 2.0
17/05:00am 0.5 -1.4 0.4 99 0.0 CALM 0 0 0 0 1011.1 1011.5 2.0
17/04:30am 1.0 -0.8 0.9 99 0.0 CALM 0 0 0 0 1011.0 1011.4 2.0
17/04:00am 1.6 -0.2 1.5 99 0.0 CALM 0 0 0 0 1010.9 1011.3 2.0
17/03:30am 1.5 -0.3 1.4 99 0.0 CALM 0 0 0 0 1010.9 1011.3 2.0
17/03:00am 1.5 -0.3 1.4 99 0.0 CALM 0 0 0 0 1011.0 1011.4 2.0
17/02:30am 1.3 -0.5 1.2 99 0.0 CALM 0 6 0 3 1011.2 1011.6 2.0
17/02:00am 1.6 -1.1 0.4 92 0.5 N 4 7 2 4 1011.3 1011.8 2.0
17/01:30am 3.3 1.8 3.0 98 0.1 CALM 0 0 0 0 1011.5 1012.0 2.0

Other Formats:

Comma delimited format used in spreadsheet applications
http://www.bom.gov.au/fwo/IDN60801/IDN60801.94729.axf

JavaScript Object Notation format (JSON) in row-major order
http://www.bom.gov.au/fwo/IDN60801/IDN60801.94729.json